Time;durP1;ratioP1;P1;durP2;ratioP2;P2;SDS_P1;SDS_P2;PMS_P1;PMS_P2;Temp;Humidity;BMP_temperature;BMP_pressure;BME280_temperature;BME280_humidity;BME280_pressure;Samples;Min_cycle;Max_cycle;Signal;HPM_P1;HPM_P2
2022/12/31 00:00:37;;;;;;;;;;;13.20;99.90;;;;;;5051807;28;19952;-60
2022/12/31 00:03:03;;;;;;;;;;;13.20;99.90;;;;;;5051681;28;19951;-60
2022/12/31 00:05:30;;;;;;;;;;;13.20;99.90;;;;;;5051755;28;19913;-60
2022/12/31 00:07:55;;;;;;;;;;;13.10;99.90;;;;;;5051789;28;19912;-61
2022/12/31 00:10:21;;;;;;;;;;;13.20;99.90;;;;;;5051530;28;19932;-61
2022/12/31 00:12:46;;;;;;;;;;;13.10;99.90;;;;;;5051675;28;20369;-60
2022/12/31 00:15:12;;;;;;;;;;;13.10;99.90;;;;;;5051801;28;19909;-60
2022/12/31 00:17:38;;;;;;;;;;;13.10;99.90;;;;;;5051297;28;19912;-60
2022/12/31 00:20:04;;;;;;;;;;;13.10;99.90;;;;;;5051182;28;19915;-60
2022/12/31 00:22:29;;;;;;;;;;;13.10;99.90;;;;;;5051516;28;19908;-60
2022/12/31 00:24:55;;;;;;;;;;;13.00;99.90;;;;;;5051675;28;20144;-60
2022/12/31 00:27:21;;;;;;;;;;;13.00;99.90;;;;;;5051324;28;19912;-59
2022/12/31 00:29:47;;;;;;;;;;;12.90;99.90;;;;;;5051234;28;19939;-59
2022/12/31 00:32:12;;;;;;;;;;;12.90;99.90;;;;;;5051307;28;20335;-59
2022/12/31 00:34:38;;;;;;;;;;;12.90;99.90;;;;;;5051474;28;20328;-60
2022/12/31 00:37:03;;;;;;;;;;;12.90;99.90;;;;;;5051109;28;19938;-60
2022/12/31 00:39:29;;;;;;;;;;;12.90;99.90;;;;;;5050999;28;20281;-60
2022/12/31 00:41:55;;;;;;;;;;;12.90;99.90;;;;;;5051264;28;19909;-61
2022/12/31 00:44:20;;;;;;;;;;;12.80;99.90;;;;;;5051144;28;19939;-60
2022/12/31 00:46:47;;;;;;;;;;;12.80;99.90;;;;;;5050865;28;19920;-61
2022/12/31 00:49:12;;;;;;;;;;;12.80;99.90;;;;;;5051045;28;19908;-61
2022/12/31 00:51:38;;;;;;;;;;;12.80;99.90;;;;;;5050912;28;20365;-61
2022/12/31 00:54:04;;;;;;;;;;;12.80;99.90;;;;;;5051045;28;20376;-61
2022/12/31 00:56:30;;;;;;;;;;;12.80;99.90;;;;;;5050968;28;19909;-61
2022/12/31 00:58:56;;;;;;;;;;;12.80;99.90;;;;;;5050941;28;19908;-61
2022/12/31 01:01:25;;;;;;;;;;;12.80;99.90;;;;;;5050946;28;19908;-60
2022/12/31 01:03:51;;;;;;;;;;;12.80;99.90;;;;;;5051254;28;19916;-61
2022/12/31 01:06:17;;;;;;;;;;;12.80;99.90;;;;;;5051028;28;19963;-60
2022/12/31 01:08:43;;;;;;;;;;;12.80;99.90;;;;;;5049561;28;19915;-61
2022/12/31 01:11:21;;;;;;;;;;;12.80;99.90;;;;;;5050935;28;19999;-60
2022/12/31 01:13:55;;;;;;;;;;;12.80;99.90;;;;;;5050894;28;20316;-61
2022/12/31 01:16:22;;;;;;;;;;;12.90;99.90;;;;;;5050679;28;19909;-61
2022/12/31 01:18:48;;;;;;;;;;;12.90;99.90;;;;;;5050860;28;19912;-61
2022/12/31 01:21:15;;;;;;;;;;;12.90;99.90;;;;;;5050836;28;19962;-60
2022/12/31 01:23:40;;;;;;;;;;;13.00;99.90;;;;;;5050902;28;20296;-60
2022/12/31 01:26:07;;;;;;;;;;;13.00;99.90;;;;;;5050829;28;19908;-60
2022/12/31 01:28:33;;;;;;;;;;;13.20;99.90;;;;;;5050205;28;19908;-60
2022/12/31 01:31:01;;;;;;;;;;;13.30;99.90;;;;;;5050708;28;20004;-60
2022/12/31 01:33:27;;;;;;;;;;;13.30;99.90;;;;;;5054895;28;19908;-60
2022/12/31 01:35:52;;;;;;;;;;;13.40;99.90;;;;;;5055018;28;20419;-60
2022/12/31 01:38:18;;;;;;;;;;;13.40;99.90;;;;;;5053272;28;19915;-60
2022/12/31 01:40:44;;;;;;;;;;;13.50;99.90;;;;;;5054319;28;20361;-60
2022/12/31 01:43:16;;;;;;;;;;;13.60;99.90;;;;;;5054500;28;19913;-60
2022/12/31 01:45:43;;;;;;;;;;;13.70;99.90;;;;;;5054577;28;19908;-60
2022/12/31 01:48:11;;;;;;;;;;;13.70;99.90;;;;;;5054206;28;20008;-61
2022/12/31 01:50:38;;;;;;;;;;;13.80;99.90;;;;;;5054291;28;19912;-61
2022/12/31 01:53:05;;;;;;;;;;;13.80;99.90;;;;;;5054509;28;19913;-61
2022/12/31 01:55:36;;;;;;;;;;;13.80;99.90;;;;;;5054854;28;20544;-61
2022/12/31 01:58:06;;;;;;;;;;;13.80;99.90;;;;;;5054093;28;19944;-61
2022/12/31 02:00:32;;;;;;;;;;;13.80;99.90;;;;;;5054056;28;19909;-61
2022/12/31 02:02:57;;;;;;;;;;;13.80;99.90;;;;;;5054490;28;19916;-61
2022/12/31 02:05:26;;;;;;;;;;;13.80;99.90;;;;;;5054332;28;19909;-61
2022/12/31 02:07:52;;;;;;;;;;;13.90;99.90;;;;;;5053792;28;19979;-61
2022/12/31 02:10:18;;;;;;;;;;;13.90;99.90;;;;;;5053902;28;19913;-61
2022/12/31 02:12:44;;;;;;;;;;;14.00;99.90;;;;;;5053996;28;20030;-61
2022/12/31 02:15:10;;;;;;;;;;;14.20;99.90;;;;;;5054079;28;19913;-61
2022/12/31 02:17:54;;;;;;;;;;;14.30;99.90;;;;;;5053872;28;19904;-60
2022/12/31 02:20:22;;;;;;;;;;;14.40;99.90;;;;;;5053768;28;19920;-61
2022/12/31 02:23:02;;;;;;;;;;;14.60;99.90;;;;;;5052332;28;20377;-61
2022/12/31 02:25:28;;;;;;;;;;;14.80;99.90;;;;;;5054080;28;19909;-61
2022/12/31 02:28:05;;;;;;;;;;;14.90;99.90;;;;;;5053595;28;20400;-61
2022/12/31 02:30:31;;;;;;;;;;;15.10;99.90;;;;;;5053479;28;19983;-60
2022/12/31 02:33:12;;;;;;;;;;;15.10;99.90;;;;;;5053655;28;19915;-61
2022/12/31 02:35:42;;;;;;;;;;;15.10;99.90;;;;;;5053611;28;19999;-60
2022/12/31 02:38:10;;;;;;;;;;;15.10;99.90;;;;;;5053412;28;19999;-61
2022/12/31 02:40:37;;;;;;;;;;;15.20;99.90;;;;;;5052080;28;19930;-61
2022/12/31 02:43:02;;;;;;;;;;;15.10;99.90;;;;;;5053082;28;19948;-60
2022/12/31 02:45:49;;;;;;;;;;;15.10;99.90;;;;;;5053455;28;20364;-60
2022/12/31 02:48:17;;;;;;;;;;;15.20;99.90;;;;;;5053125;28;20395;-63
2022/12/31 02:50:54;;;;;;;;;;;15.20;99.90;;;;;;5052921;28;19999;-60
2022/12/31 02:53:22;;;;;;;;;;;15.20;99.90;;;;;;5064688;22;19920;-53
2022/12/31 02:55:50;;;;;;;;;;;15.20;99.90;;;;;;5053064;28;19909;-52
2022/12/31 03:06:51;;;;;;;;;;;15.40;99.90;;;;;;5052808;28;19963;-55
2022/12/31 03:09:17;;;;;;;;;;;15.30;99.90;;;;;;5052692;28;19908;-52
2022/12/31 03:14:27;;;;;;;;;;;15.30;99.90;;;;;;5052760;28;19909;-52
2022/12/31 03:16:53;;;;;;;;;;;15.40;99.90;;;;;;5052445;28;19935;-55
2022/12/31 03:27:30;;;;;;;;;;;15.30;99.90;;;;;;5052348;28;20048;-57
2022/12/31 03:29:56;;;;;;;;;;;15.30;99.90;;;;;;5052214;28;20442;-56
2022/12/31 03:32:22;;;;;;;;;;;15.40;99.90;;;;;;5052454;28;19913;-57
2022/12/31 03:34:47;;;;;;;;;;;15.50;99.90;;;;;;5052443;28;19915;-55
2022/12/31 03:37:13;;;;;;;;;;;15.50;99.90;;;;;;5052142;28;20055;-54
2022/12/31 03:39:38;;;;;;;;;;;15.50;99.90;;;;;;5052089;28;20352;-53
2022/12/31 03:42:04;;;;;;;;;;;15.60;99.90;;;;;;5052145;28;19915;-53
2022/12/31 03:44:30;;;;;;;;;;;15.60;99.90;;;;;;5052348;28;19912;-53
2022/12/31 03:46:55;;;;;;;;;;;15.60;99.90;;;;;;5051943;28;19917;-56
2022/12/31 03:49:21;;;;;;;;;;;15.60;99.90;;;;;;5051988;28;20020;-53
2022/12/31 03:51:46;;;;;;;;;;;15.60;99.90;;;;;;5051865;28;19936;-53
2022/12/31 03:54:12;;;;;;;;;;;15.60;99.90;;;;;;5051260;28;19915;-53
2022/12/31 03:56:37;;;;;;;;;;;15.60;99.90;;;;;;5051772;28;20276;-52
2022/12/31 03:59:03;;;;;;;;;;;15.70;99.90;;;;;;5051671;28;20004;-55
2022/12/31 04:01:29;;;;;;;;;;;15.70;99.90;;;;;;5051845;28;19974;-55
2022/12/31 04:03:54;;;;;;;;;;;15.70;99.90;;;;;;5051805;28;19960;-55
2022/12/31 04:06:20;;;;;;;;;;;15.70;99.90;;;;;;5051559;28;19912;-55
2022/12/31 04:08:45;;;;;;;;;;;15.70;99.90;;;;;;5051465;28;19931;-56
2022/12/31 04:11:12;;;;;;;;;;;15.70;99.90;;;;;;5051727;28;19909;-55
2022/12/31 04:13:37;;;;;;;;;;;15.70;99.90;;;;;;5051635;28;20332;-55
2022/12/31 04:16:04;;;;;;;;;;;15.60;99.90;;;;;;5051519;28;19934;-55
2022/12/31 04:18:30;;;;;;;;;;;15.60;99.90;;;;;;5051290;28;19912;-56
2022/12/31 04:21:02;;;;;;;;;;;15.60;99.90;;;;;;5051455;28;20320;-56
2022/12/31 04:23:28;;;;;;;;;;;15.50;99.90;;;;;;5051367;28;19999;-56
2022/12/31 04:25:53;;;;;;;;;;;15.40;99.90;;;;;;5051515;28;19959;-54
2022/12/31 04:28:19;;;;;;;;;;;15.40;99.90;;;;;;5051193;28;20334;-54
2022/12/31 04:30:45;;;;;;;;;;;15.40;99.90;;;;;;5051228;28;19909;-57
2022/12/31 04:33:10;;;;;;;;;;;15.30;99.90;;;;;;5051234;28;20379;-56
2022/12/31 04:35:36;;;;;;;;;;;15.40;99.90;;;;;;5051322;28;19915;-57
2022/12/31 04:38:02;;;;;;;;;;;15.40;99.90;;;;;;5051011;28;19912;-55
2022/12/31 04:40:27;;;;;;;;;;;15.40;99.90;;;;;;5051020;28;20010;-53
2022/12/31 04:42:53;;;;;;;;;;;15.40;99.90;;;;;;5051074;28;19913;-54
2022/12/31 04:45:18;;;;;;;;;;;15.50;99.90;;;;;;5051269;28;20012;-55
2022/12/31 04:47:44;;;;;;;;;;;15.60;99.90;;;;;;5050858;28;19912;-51
2022/12/31 04:50:10;;;;;;;;;;;15.60;99.90;;;;;;5050853;28;19939;-56
2022/12/31 04:52:36;;;;;;;;;;;15.60;99.90;;;;;;5050803;28;19971;-56
2022/12/31 04:55:02;;;;;;;;;;;15.60;99.90;;;;;;5051242;28;20353;-56
2022/12/31 04:57:28;;;;;;;;;;;15.70;99.90;;;;;;5050882;28;19917;-55
2022/12/31 04:59:53;;;;;;;;;;;15.70;99.90;;;;;;5050679;28;19952;-55
2022/12/31 05:02:19;;;;;;;;;;;15.80;99.90;;;;;;5050885;28;19982;-55
2022/12/31 05:04:44;;;;;;;;;;;15.80;99.90;;;;;;5050905;28;19928;-52
2022/12/31 05:07:10;;;;;;;;;;;15.80;99.90;;;;;;5050541;28;20250;-57
2022/12/31 05:09:36;;;;;;;;;;;15.80;99.90;;;;;;5050771;28;19917;-55
2022/12/31 05:12:01;;;;;;;;;;;15.90;99.90;;;;;;5051001;28;20059;-55
2022/12/31 05:14:27;;;;;;;;;;;15.90;99.90;;;;;;5050815;28;20360;-55
2022/12/31 05:16:52;;;;;;;;;;;15.90;99.90;;;;;;5050754;28;20006;-56
2022/12/31 05:19:18;;;;;;;;;;;16.00;99.90;;;;;;5050735;28;19961;-54
2022/12/31 05:22:27;;;;;;;;;;;16.10;99.90;;;;;;5050726;28;20380;-55
2022/12/31 05:24:30;;;;;;;;;;;16.10;99.90;;;;;;5050812;28;19959;-53
2022/12/31 05:26:56;;;;;;;;;;;16.10;99.90;;;;;;5050541;28;19955;-55
2022/12/31 05:29:21;;;;;;;;;;;16.10;99.90;;;;;;5050518;28;19916;-55
2022/12/31 05:31:47;;;;;;;;;;;16.10;99.90;;;;;;5050634;28;20367;-56
2022/12/31 05:34:12;;;;;;;;;;;16.10;99.90;;;;;;5050550;28;19916;-54
2022/12/31 05:36:38;;;;;;;;;;;16.10;99.90;;;;;;5050617;28;19909;-54
2022/12/31 05:39:04;;;;;;;;;;;16.20;99.90;;;;;;5050318;28;20573;-56
2022/12/31 05:41:29;;;;;;;;;;;16.20;99.90;;;;;;5050812;28;19917;-56
2022/12/31 05:43:55;;;;;;;;;;;16.20;99.90;;;;;;5050548;28;19909;-57
2022/12/31 05:46:21;;;;;;;;;;;16.20;99.90;;;;;;5050192;28;19923;-54
2022/12/31 05:48:46;;;;;;;;;;;16.20;99.90;;;;;;5050282;28;19963;-56
2022/12/31 05:51:12;;;;;;;;;;;16.30;99.90;;;;;;5050371;28;19916;-55
2022/12/31 05:53:37;;;;;;;;;;;16.30;99.90;;;;;;5050476;28;19913;-55
2022/12/31 05:56:03;;;;;;;;;;;16.20;99.90;;;;;;5050447;28;19962;-55
2022/12/31 05:58:28;;;;;;;;;;;16.20;99.90;;;;;;5050232;28;20356;-56
2022/12/31 06:00:54;;;;;;;;;;;16.20;99.90;;;;;;5050404;28;19977;-53
2022/12/31 06:03:20;;;;;;;;;;;16.30;99.90;;;;;;5050761;28;19911;-55
2022/12/31 06:05:45;;;;;;;;;;;16.40;99.90;;;;;;5050628;28;19909;-54
2022/12/31 06:08:11;;;;;;;;;;;16.40;99.90;;;;;;5050180;28;19963;-53
2022/12/31 06:10:37;;;;;;;;;;;16.40;99.90;;;;;;5050320;28;19947;-54
2022/12/31 06:13:03;;;;;;;;;;;16.40;99.90;;;;;;5050315;28;20003;-55
2022/12/31 06:15:28;;;;;;;;;;;16.40;99.90;;;;;;5050355;28;19919;-57
2022/12/31 06:17:54;;;;;;;;;;;16.50;99.90;;;;;;5052630;28;19909;-55
2022/12/31 06:20:19;;;;;;;;;;;16.50;99.90;;;;;;5053646;28;19961;-54
2022/12/31 06:22:45;;;;;;;;;;;16.50;99.90;;;;;;5053999;28;19908;-55
2022/12/31 06:25:11;;;;;;;;;;;16.50;99.90;;;;;;5053699;28;19909;-52
2022/12/31 06:27:36;;;;;;;;;;;16.50;99.90;;;;;;5053461;28;20010;-55
2022/12/31 06:30:02;;;;;;;;;;;16.50;99.90;;;;;;5052151;28;19909;-56
2022/12/31 06:32:27;;;;;;;;;;;16.50;99.90;;;;;;5053445;28;19962;-55
2022/12/31 06:34:53;;;;;;;;;;;16.60;99.90;;;;;;5053924;28;19974;-51
2022/12/31 06:37:19;;;;;;;;;;;16.60;99.90;;;;;;5053314;28;19995;-56
2022/12/31 06:39:44;;;;;;;;;;;16.60;99.90;;;;;;5053305;28;19908;-50
2022/12/31 06:42:10;;;;;;;;;;;16.60;99.90;;;;;;5053323;28;19954;-55
2022/12/31 06:44:36;;;;;;;;;;;16.60;99.90;;;;;;5053460;28;19909;-54
2022/12/31 06:47:02;;;;;;;;;;;16.60;99.90;;;;;;5051781;28;19920;-54
2022/12/31 06:49:27;;;;;;;;;;;16.60;99.90;;;;;;5053151;28;19963;-54
2022/12/31 06:51:53;;;;;;;;;;;16.60;99.90;;;;;;5053185;28;19913;-52
2022/12/31 06:54:19;;;;;;;;;;;16.60;99.90;;;;;;5053411;28;20376;-52
2022/12/31 06:56:44;;;;;;;;;;;16.60;99.90;;;;;;5053191;28;19912;-56
2022/12/31 06:59:20;;;;;;;;;;;16.60;99.90;;;;;;5053101;28;19930;-56
2022/12/31 07:02:01;;;;;;;;;;;16.60;99.90;;;;;;5052995;28;19908;-49
2022/12/31 07:04:43;;;;;;;;;;;16.60;99.90;;;;;;5053164;28;19909;-53
2022/12/31 07:07:27;;;;;;;;;;;16.60;99.90;;;;;;5053014;28;20334;-51
2022/12/31 07:10:01;;;;;;;;;;;16.60;99.90;;;;;;5052703;28;19910;-51
2022/12/31 07:12:35;;;;;;;;;;;16.70;99.90;;;;;;5052962;28;20286;-52
2022/12/31 07:15:08;;;;;;;;;;;16.70;99.90;;;;;;5052981;28;19908;-53
2022/12/31 07:17:43;;;;;;;;;;;16.70;99.90;;;;;;5052720;28;20324;-52
2022/12/31 07:20:10;;;;;;;;;;;16.70;99.90;;;;;;5052647;28;20226;-53
2022/12/31 07:22:36;;;;;;;;;;;16.60;99.90;;;;;;5052613;28;20003;-55
2022/12/31 07:25:02;;;;;;;;;;;16.70;99.90;;;;;;5052752;28;20004;-53
2022/12/31 07:27:33;;;;;;;;;;;16.70;99.90;;;;;;5052239;28;19948;-56
2022/12/31 07:30:08;;;;;;;;;;;16.60;99.90;;;;;;5051600;28;19938;-51
2022/12/31 07:32:39;;;;;;;;;;;16.60;99.90;;;;;;5052626;28;19908;-53
2022/12/31 07:35:05;;;;;;;;;;;16.50;99.90;;;;;;5052519;28;20371;-51
2022/12/31 07:37:37;;;;;;;;;;;16.50;99.90;;;;;;5052521;28;19908;-52
2022/12/31 07:40:10;;;;;;;;;;;16.50;99.90;;;;;;5052610;28;20003;-53
2022/12/31 07:42:37;;;;;;;;;;;16.60;99.90;;;;;;5052507;28;19908;-56
2022/12/31 07:45:11;;;;;;;;;;;16.60;99.90;;;;;;5052301;28;19908;-55
2022/12/31 07:47:37;;;;;;;;;;;16.60;99.90;;;;;;5052065;28;19913;-53
2022/12/31 07:50:02;;;;;;;;;;;16.50;99.90;;;;;;5052217;28;19916;-56
2022/12/31 07:52:28;;;;;;;;;;;16.60;99.90;;;;;;5052010;28;19920;-54
2022/12/31 07:54:54;;;;;;;;;;;16.50;99.90;;;;;;5052297;28;19908;-56
2022/12/31 07:57:22;;;;;;;;;;;16.50;99.90;;;;;;5052415;28;19908;-54
2022/12/31 08:00:00;;;;;;;;;;;16.50;99.90;;;;;;5051920;28;19919;-53
2022/12/31 08:02:44;;;;;;;;;;;16.50;99.90;;;;;;5051995;28;19916;-54
2022/12/31 08:05:16;;;;;;;;;;;16.50;99.90;;;;;;5051922;28;20289;-54
2022/12/31 08:08:04;;;;;;;;;;;16.50;99.90;;;;;;5051729;28;19935;-55
2022/12/31 08:10:37;;;;;;;;;;;16.50;99.90;;;;;;5051512;28;19908;-53
2022/12/31 08:13:07;;;;;;;;;;;16.40;99.90;;;;;;5051788;28;20284;-52
2022/12/31 08:15:32;;;;;;;;;;;16.40;99.90;;;;;;5051786;28;19916;-54
2022/12/31 08:17:58;;;;;;;;;;;16.40;99.90;;;;;;5051566;28;19912;-56
2022/12/31 08:20:24;;;;;;;;;;;16.40;99.90;;;;;;5051428;28;19939;-54
2022/12/31 08:22:53;;;;;;;;;;;16.50;99.90;;;;;;5052034;28;19915;-57
2022/12/31 08:25:18;;;;;;;;;;;16.60;99.90;;;;;;5051573;28;19952;-55
2022/12/31 08:27:54;;;;;;;;;;;16.60;99.90;;;;;;5051111;28;19952;-53
2022/12/31 08:30:20;;;;;;;;;;;16.60;99.90;;;;;;5051193;28;19909;-55
2022/12/31 08:33:01;;;;;;;;;;;16.60;99.90;;;;;;5051413;28;19913;-54
2022/12/31 08:35:33;;;;;;;;;;;16.70;99.90;;;;;;5051484;28;19916;-55
2022/12/31 08:38:11;;;;;;;;;;;16.70;99.90;;;;;;5051216;28;19915;-55
2022/12/31 08:40:45;;;;;;;;;;;16.70;99.90;;;;;;5050827;28;20357;-54
2022/12/31 08:43:14;;;;;;;;;;;16.80;99.90;;;;;;5051212;28;19909;-52
2022/12/31 08:45:50;;;;;;;;;;;16.90;99.90;;;;;;5051256;28;19962;-52
2022/12/31 08:48:31;;;;;;;;;;;16.80;99.90;;;;;;5050999;28;19912;-51
2022/12/31 08:50:57;;;;;;;;;;;16.90;99.90;;;;;;5051088;28;19909;-54
2022/12/31 08:53:22;;;;;;;;;;;16.90;99.90;;;;;;5062446;22;19931;-50
2022/12/31 08:55:51;;;;;;;;;;;16.90;99.90;;;;;;5049865;28;19958;-48
2022/12/31 08:58:35;;;;;;;;;;;16.90;99.90;;;;;;5050785;28;19909;-50
2022/12/31 09:01:02;;;;;;;;;;;16.90;99.90;;;;;;5050925;28;19915;-50
2022/12/31 09:03:40;;;;;;;;;;;16.90;99.90;;;;;;5050955;28;20007;-49
2022/12/31 09:06:12;;;;;;;;;;;16.90;99.90;;;;;;5050977;28;19908;-47
2022/12/31 09:08:44;;;;;;;;;;;16.90;99.90;;;;;;5050506;28;20298;-50
2022/12/31 09:11:17;;;;;;;;;;;16.90;99.90;;;;;;5050905;28;20289;-49
2022/12/31 09:13:42;;;;;;;;;;;16.90;99.90;;;;;;5049616;28;20388;-50
2022/12/31 09:16:16;;;;;;;;;;;16.90;99.90;;;;;;5050894;28;19912;-52
2022/12/31 09:18:42;;;;;;;;;;;16.80;99.90;;;;;;5050637;28;20399;-48
2022/12/31 09:21:09;;;;;;;;;;;16.80;99.90;;;;;;5050799;28;19909;-53
2022/12/31 09:23:35;;;;;;;;;;;16.80;99.90;;;;;;5050706;28;20004;-52
2022/12/31 09:26:19;;;;;;;;;;;16.80;99.90;;;;;;5050981;28;20019;-51
2022/12/31 09:28:44;;;;;;;;;;;16.90;99.90;;;;;;5050413;28;19919;-50
2022/12/31 09:31:13;;;;;;;;;;;16.90;99.90;;;;;;5050817;28;19909;-48
2022/12/31 09:33:51;;;;;;;;;;;16.90;99.90;;;;;;5050585;28;19909;-47
2022/12/31 09:36:40;;;;;;;;;;;17.00;99.90;;;;;;5050669;28;19909;-51
2022/12/31 09:39:05;;;;;;;;;;;17.00;99.90;;;;;;5039709;28;19908;-52
2022/12/31 09:41:36;;;;;;;;;;;17.00;99.90;;;;;;5050677;28;19909;-51
2022/12/31 09:44:14;;;;;;;;;;;17.00;99.90;;;;;;5050759;28;19948;-49
2022/12/31 09:46:58;;;;;;;;;;;17.10;99.90;;;;;;5050380;28;19933;-49
2022/12/31 09:49:29;;;;;;;;;;;17.10;99.90;;;;;;5050426;28;20392;-52
2022/12/31 09:52:03;;;;;;;;;;;17.10;99.90;;;;;;5051611;28;19916;-50
2022/12/31 09:54:47;;;;;;;;;;;17.10;99.90;;;;;;5054563;28;19916;-50
2022/12/31 09:57:30;;;;;;;;;;;17.10;99.90;;;;;;5054219;28;20380;-50
2022/12/31 09:59:58;;;;;;;;;;;17.10;99.90;;;;;;5054333;28;19909;-49
2022/12/31 10:02:42;;;;;;;;;;;17.10;99.90;;;;;;5054297;28;19909;-53
2022/12/31 10:05:08;;;;;;;;;;;17.10;99.90;;;;;;5054293;28;19912;-50
2022/12/31 10:07:42;;;;;;;;;;;17.20;99.90;;;;;;5054104;28;19913;-50
2022/12/31 10:10:12;;;;;;;;;;;17.10;99.90;;;;;;5053943;28;19915;-48
2022/12/31 10:12:43;;;;;;;;;;;17.10;99.90;;;;;;5054083;28;20292;-52
2022/12/31 10:15:15;;;;;;;;;;;17.10;99.90;;;;;;5054147;28;19908;-51
2022/12/31 10:17:40;;;;;;;;;;;17.20;99.90;;;;;;5053873;28;19913;-50
2022/12/31 10:20:24;;;;;;;;;;;17.20;99.90;;;;;;5053829;28;19905;-52
2022/12/31 10:23:05;;;;;;;;;;;17.10;99.90;;;;;;5054007;28;20335;-53
2022/12/31 10:25:50;;;;;;;;;;;17.20;99.90;;;;;;5053862;28;19970;-50
2022/12/31 10:28:34;;;;;;;;;;;17.30;99.90;;;;;;5053623;28;19920;-49
2022/12/31 10:30:59;;;;;;;;;;;17.40;99.90;;;;;;5053903;28;19915;-52
2022/12/31 10:33:36;;;;;;;;;;;17.40;99.90;;;;;;5053795;28;19909;-51
2022/12/31 10:36:07;;;;;;;;;;;17.40;99.90;;;;;;5053834;28;19913;-47
2022/12/31 10:38:52;;;;;;;;;;;17.50;99.90;;;;;;5053311;28;19915;-52
2022/12/31 10:41:35;;;;;;;;;;;17.50;99.90;;;;;;5053729;28;20266;-47
2022/12/31 10:44:26;;;;;;;;;;;17.50;99.90;;;;;;5053937;28;19908;-50
2022/12/31 10:47:01;;;;;;;;;;;17.50;99.90;;;;;;5054006;28;19919;-54
2022/12/31 10:49:52;;;;;;;;;;;17.50;99.90;;;;;;5053603;28;19908;-49
2022/12/31 10:52:24;;;;;;;;;;;17.50;99.90;;;;;;5022417;28;20005;-54
2022/12/31 10:54:49;;;;;;;;;;;17.60;99.90;;;;;;5053745;28;19908;-51
2022/12/31 10:57:24;;;;;;;;;;;17.50;99.90;;;;;;5052416;28;20269;-50
2022/12/31 10:59:59;;;;;;;;;;;17.60;99.90;;;;;;5053359;28;19909;-52
2022/12/31 11:02:37;;;;;;;;;;;17.60;99.90;;;;;;5053304;28;19909;-52
2022/12/31 11:05:21;;;;;;;;;;;17.60;99.90;;;;;;5053524;28;19913;-53
2022/12/31 11:08:05;;;;;;;;;;;17.70;99.90;;;;;;5053111;28;19924;-53
2022/12/31 11:10:31;;;;;;;;;;;17.70;99.90;;;;;;5053234;28;19909;-49
2022/12/31 11:13:02;;;;;;;;;;;17.80;99.90;;;;;;5053255;28;19916;-52
2022/12/31 11:15:40;;;;;;;;;;;17.80;99.90;;;;;;5053403;28;19909;-50
2022/12/31 11:18:09;;;;;;;;;;;17.80;99.90;;;;;;5053062;28;19913;-51
2022/12/31 11:20:54;;;;;;;;;;;17.80;99.90;;;;;;5052934;28;19916;-50
2022/12/31 11:23:35;;;;;;;;;;;17.80;99.90;;;;;;5053229;28;19954;-52
2022/12/31 11:26:01;;;;;;;;;;;17.70;99.90;;;;;;5053093;28;19916;-53
2022/12/31 11:28:46;;;;;;;;;;;17.70;99.90;;;;;;5052767;28;19913;-52
2022/12/31 11:31:14;;;;;;;;;;;17.70;99.90;;;;;;5052948;28;19952;-51
2022/12/31 11:33:42;;;;;;;;;;;17.60;99.90;;;;;;5052906;28;19916;-50
2022/12/31 11:36:08;;;;;;;;;;;17.50;99.90;;;;;;5052895;28;19915;-48
2022/12/31 11:38:41;;;;;;;;;;;17.50;99.90;;;;;;5052435;28;19905;-51
2022/12/31 11:41:12;;;;;;;;;;;17.60;99.90;;;;;;5052744;28;20024;-48
2022/12/31 11:43:40;;;;;;;;;;;17.50;99.90;;;;;;5052568;28;20292;-52
2022/12/31 11:46:16;;;;;;;;;;;17.50;99.90;;;;;;5053055;28;19908;-49
2022/12/31 11:49:10;;;;;;;;;;;17.50;99.90;;;;;;5052310;28;19948;-50
2022/12/31 11:51:54;;;;;;;;;;;17.40;99.90;;;;;;5052375;28;20280;-48
2022/12/31 11:54:20;;;;;;;;;;;17.30;99.90;;;;;;5052697;28;19920;-51
2022/12/31 11:57:06;;;;;;;;;;;17.30;99.90;;;;;;5052255;28;19908;-49
2022/12/31 11:59:31;;;;;;;;;;;17.40;99.90;;;;;;5051559;28;19913;-51
2022/12/31 12:02:03;;;;;;;;;;;17.40;99.90;;;;;;5052189;28;19915;-51
2022/12/31 12:04:29;;;;;;;;;;;17.30;99.90;;;;;;5052327;28;20293;-52
2022/12/31 12:06:54;;;;;;;;;;;17.40;99.90;;;;;;5052210;28;19908;-52
2022/12/31 12:09:30;;;;;;;;;;;17.40;99.90;;;;;;5052040;28;19909;-49
2022/12/31 12:11:58;;;;;;;;;;;17.40;99.90;;;;;;5052015;28;20281;-52
2022/12/31 12:14:34;;;;;;;;;;;17.50;99.90;;;;;;5051474;28;19919;-52
2022/12/31 12:17:00;;;;;;;;;;;17.40;99.90;;;;;;5052144;28;19966;-49
2022/12/31 12:19:28;;;;;;;;;;;17.40;99.90;;;;;;5051905;28;20394;-51
2022/12/31 12:21:54;;;;;;;;;;;17.40;99.90;;;;;;5051935;28;19909;-49
2022/12/31 12:24:20;;;;;;;;;;;17.50;99.90;;;;;;5051933;28;19908;-51
2022/12/31 12:26:46;;;;;;;;;;;17.50;99.90;;;;;;5051680;28;19919;-52
2022/12/31 12:29:17;;;;;;;;;;;17.40;99.90;;;;;;5051831;28;19932;-52
2022/12/31 12:31:56;;;;;;;;;;;17.30;99.90;;;;;;5050430;28;20449;-52
2022/12/31 12:34:24;;;;;;;;;;;17.20;99.90;;;;;;5051823;28;19919;-47
2022/12/31 12:36:49;;;;;;;;;;;17.00;99.90;;;;;;5051582;28;20000;-47
2022/12/31 12:39:21;;;;;;;;;;;16.90;99.90;;;;;;5051400;28;20420;-49
2022/12/31 12:41:46;;;;;;;;;;;16.80;99.90;;;;;;5051625;28;19994;-49
2022/12/31 12:44:14;;;;;;;;;;;16.70;99.90;;;;;;5051766;28;20372;-49
2022/12/31 12:46:45;;;;;;;;;;;16.70;99.90;;;;;;5051360;28;19935;-48
2022/12/31 12:49:20;;;;;;;;;;;16.60;99.90;;;;;;5051490;28;19908;-48
2022/12/31 12:52:00;;;;;;;;;;;16.70;99.90;;;;;;5051179;28;20415;-49
2022/12/31 12:54:32;;;;;;;;;;;16.70;99.90;;;;;;5051560;28;19909;-51
2022/12/31 12:57:00;;;;;;;;;;;16.80;99.90;;;;;;5051243;28;20382;-49
2022/12/31 12:59:29;;;;;;;;;;;16.90;99.90;;;;;;5051325;28;19909;-53
2022/12/31 13:02:00;;;;;;;;;;;16.80;99.90;;;;;;5051353;28;19991;-51
2022/12/31 13:04:28;;;;;;;;;;;17.00;99.90;;;;;;5051349;28;19908;-51
2022/12/31 13:07:05;;;;;;;;;;;17.00;99.90;;;;;;5051132;28;20338;-53
2022/12/31 13:09:31;;;;;;;;;;;17.00;99.90;;;;;;5051097;28;19909;-48
2022/12/31 13:12:05;;;;;;;;;;;17.00;99.90;;;;;;5051332;28;19915;-49
2022/12/31 13:14:45;;;;;;;;;;;17.00;99.90;;;;;;5051161;28;19909;-49
2022/12/31 13:17:11;;;;;;;;;;;17.00;99.90;;;;;;5051240;28;20266;-47
2022/12/31 13:19:37;;;;;;;;;;;17.10;99.90;;;;;;5051200;28;19915;-49
2022/12/31 13:22:21;;;;;;;;;;;17.10;99.90;;;;;;5051075;28;20092;-49
2022/12/31 13:25:02;;;;;;;;;;;17.10;99.90;;;;;;5051188;28;19909;-47
2022/12/31 13:27:33;;;;;;;;;;;17.10;99.90;;;;;;5055067;28;19935;-49
2022/12/31 13:30:00;;;;;;;;;;;17.20;99.90;;;;;;5054996;28;19915;-49
2022/12/31 13:32:44;;;;;;;;;;;17.20;99.90;;;;;;5055031;28;19909;-49
2022/12/31 13:35:36;;;;;;;;;;;17.20;99.90;;;;;;5055045;28;19908;-49
2022/12/31 13:38:09;;;;;;;;;;;17.10;99.90;;;;;;5023621;28;19971;-48
2022/12/31 13:40:39;;;;;;;;;;;17.10;99.90;;;;;;5054840;28;19979;-49
2022/12/31 13:43:13;;;;;;;;;;;17.20;99.90;;;;;;5054862;28;20498;-51
2022/12/31 13:45:42;;;;;;;;;;;17.20;99.90;;;;;;5054957;28;19991;-52
2022/12/31 13:48:13;;;;;;;;;;;17.20;99.90;;;;;;5054362;28;20272;-49
2022/12/31 13:50:46;;;;;;;;;;;17.20;99.90;;;;;;5054469;28;19990;-51
2022/12/31 13:53:20;;;;;;;;;;;17.20;99.90;;;;;;5054564;28;19917;-52
2022/12/31 13:55:50;;;;;;;;;;;17.20;99.90;;;;;;5053386;28;20377;-52
2022/12/31 13:58:30;;;;;;;;;;;17.20;99.90;;;;;;5054275;28;19908;-49
2022/12/31 14:01:00;;;;;;;;;;;17.20;99.90;;;;;;5054664;28;19909;-52
2022/12/31 14:03:26;;;;;;;;;;;17.20;99.90;;;;;;5054575;28;19986;-51
2022/12/31 14:05:55;;;;;;;;;;;17.20;99.90;;;;;;5054444;28;19971;-48
2022/12/31 14:08:20;;;;;;;;;;;17.20;99.90;;;;;;5054110;28;19966;-52
2022/12/31 14:11:05;;;;;;;;;;;17.20;99.90;;;;;;5053984;28;20351;-52
2022/12/31 14:13:36;;;;;;;;;;;17.20;99.90;;;;;;5054135;28;19913;-53
2022/12/31 14:16:20;;;;;;;;;;;17.20;99.90;;;;;;5054244;28;19951;-51
2022/12/31 14:18:48;;;;;;;;;;;17.20;99.90;;;;;;5053935;28;20377;-52
2022/12/31 14:21:21;;;;;;;;;;;17.20;99.90;;;;;;5053870;28;19931;-53
2022/12/31 14:24:05;;;;;;;;;;;17.10;99.90;;;;;;5053985;28;19991;-49
2022/12/31 14:26:46;;;;;;;;;;;17.10;99.90;;;;;;5053790;28;20361;-49
2022/12/31 14:29:23;;;;;;;;;;;17.00;99.90;;;;;;5053738;28;19909;-49
2022/12/31 14:31:50;;;;;;;;;;;17.00;99.90;;;;;;5053648;28;19915;-49
2022/12/31 14:34:16;;;;;;;;;;;16.90;99.90;;;;;;5054002;28;19954;-49
2022/12/31 14:36:41;;;;;;;;;;;16.90;99.90;;;;;;5053845;28;19909;-50
2022/12/31 14:39:07;;;;;;;;;;;16.80;99.90;;;;;;5052977;28;19944;-51
2022/12/31 14:41:43;;;;;;;;;;;16.90;99.90;;;;;;5053534;28;19913;-51
2022/12/31 14:44:11;;;;;;;;;;;16.80;99.90;;;;;;5053584;28;19916;-53
2022/12/31 14:46:58;;;;;;;;;;;16.70;99.90;;;;;;5053226;28;19913;-52
2022/12/31 14:49:38;;;;;;;;;;;16.70;99.90;;;;;;5053620;28;20022;-51
2022/12/31 14:55:10;;;;;;;;;;;16.40;99.90;;;;;;4992334;28;19972;-54